sensor_id;sensor_type;location;lat;lon;timestamp;P1;durP1;ratioP1;P2;durP2;ratioP2
60730;SDS011;46580;52.114;11.674;2024-03-22T00:01:04;11.93;;;6.30;;
60730;SDS011;46580;52.114;11.674;2024-03-22T00:03:29;11.83;;;6.63;;
60730;SDS011;46580;52.114;11.674;2024-03-22T00:05:54;13.10;;;7.37;;
60730;SDS011;46580;52.114;11.674;2024-03-22T00:08:20;17.77;;;11.40;;
60730;SDS011;46580;52.114;11.674;2024-03-22T00:10:45;17.70;;;9.97;;
60730;SDS011;46580;52.114;11.674;2024-03-22T00:13:11;26.53;;;13.57;;
60730;SDS011;46580;52.114;11.674;2024-03-22T00:15:36;19.50;;;12.73;;
60730;SDS011;46580;52.114;11.674;2024-03-22T00:18:02;16.80;;;9.57;;
60730;SDS011;46580;52.114;11.674;2024-03-22T00:20:27;15.37;;;7.53;;
60730;SDS011;46580;52.114;11.674;2024-03-22T00:22:53;11.87;;;6.97;;
60730;SDS011;46580;52.114;11.674;2024-03-22T00:25:18;12.33;;;6.67;;
60730;SDS011;46580;52.114;11.674;2024-03-22T00:27:46;14.20;;;6.37;;
60730;SDS011;46580;52.114;11.674;2024-03-22T00:30:12;11.03;;;6.03;;
60730;SDS011;46580;52.114;11.674;2024-03-22T00:32:37;10.93;;;5.93;;
60730;SDS011;46580;52.114;11.674;2024-03-22T00:35:03;11.00;;;6.00;;
60730;SDS011;46580;52.114;11.674;2024-03-22T00:37:28;14.40;;;6.80;;
60730;SDS011;46580;52.114;11.674;2024-03-22T00:39:54;10.57;;;5.20;;
60730;SDS011;46580;52.114;11.674;2024-03-22T00:42:19;10.80;;;5.53;;
60730;SDS011;46580;52.114;11.674;2024-03-22T00:44:45;10.00;;;5.70;;
60730;SDS011;46580;52.114;11.674;2024-03-22T00:47:10;8.63;;;5.00;;
60730;SDS011;46580;52.114;11.674;2024-03-22T00:49:36;11.97;;;6.20;;
60730;SDS011;46580;52.114;11.674;2024-03-22T00:52:01;10.73;;;5.90;;
60730;SDS011;46580;52.114;11.674;2024-03-22T00:54:27;10.90;;;5.63;;
60730;SDS011;46580;52.114;11.674;2024-03-22T00:56:53;12.27;;;6.30;;
60730;SDS011;46580;52.114;11.674;2024-03-22T00:59:18;11.90;;;6.23;;
60730;SDS011;46580;52.114;11.674;2024-03-22T01:01:44;12.67;;;6.60;;
60730;SDS011;46580;52.114;11.674;2024-03-22T01:04:09;11.00;;;5.83;;
60730;SDS011;46580;52.114;11.674;2024-03-22T01:06:35;10.07;;;6.40;;
60730;SDS011;46580;52.114;11.674;2024-03-22T01:09:00;9.80;;;5.13;;
60730;SDS011;46580;52.114;11.674;2024-03-22T01:11:25;10.73;;;5.97;;
60730;SDS011;46580;52.114;11.674;2024-03-22T01:13:51;9.37;;;5.50;;
60730;SDS011;46580;52.114;11.674;2024-03-22T01:16:16;11.43;;;5.27;;
60730;SDS011;46580;52.114;11.674;2024-03-22T01:18:42;11.53;;;6.10;;
60730;SDS011;46580;52.114;11.674;2024-03-22T01:21:07;10.43;;;5.90;;
60730;SDS011;46580;52.114;11.674;2024-03-22T01:23:32;11.50;;;5.70;;
60730;SDS011;46580;52.114;11.674;2024-03-22T01:26:01;11.07;;;6.10;;
60730;SDS011;46580;52.114;11.674;2024-03-22T01:28:26;11.07;;;5.70;;
60730;SDS011;46580;52.114;11.674;2024-03-22T01:30:51;13.27;;;6.23;;
60730;SDS011;46580;52.114;11.674;2024-03-22T01:33:17;13.17;;;6.77;;
60730;SDS011;46580;52.114;11.674;2024-03-22T01:35:42;12.10;;;6.23;;
60730;SDS011;46580;52.114;11.674;2024-03-22T01:38:07;13.00;;;6.63;;
60730;SDS011;46580;52.114;11.674;2024-03-22T01:40:51;10.53;;;6.17;;
60730;SDS011;46580;52.114;11.674;2024-03-22T01:43:17;14.97;;;6.77;;
60730;SDS011;46580;52.114;11.674;2024-03-22T01:45:42;11.43;;;6.40;;
60730;SDS011;46580;52.114;11.674;2024-03-22T01:48:08;10.63;;;6.43;;
60730;SDS011;46580;52.114;11.674;2024-03-22T01:50:33;10.60;;;6.50;;
60730;SDS011;46580;52.114;11.674;2024-03-22T01:53:00;13.70;;;6.07;;
60730;SDS011;46580;52.114;11.674;2024-03-22T01:55:26;9.00;;;5.90;;
60730;SDS011;46580;52.114;11.674;2024-03-22T01:57:54;12.13;;;6.40;;
60730;SDS011;46580;52.114;11.674;2024-03-22T02:00:20;11.00;;;6.10;;
60730;SDS011;46580;52.114;11.674;2024-03-22T02:02:46;9.73;;;6.10;;
60730;SDS011;46580;52.114;11.674;2024-03-22T02:05:15;8.53;;;5.70;;
60730;SDS011;46580;52.114;11.674;2024-03-22T02:07:44;12.27;;;6.10;;
60730;SDS011;46580;52.114;11.674;2024-03-22T02:10:10;10.37;;;5.97;;
60730;SDS011;46580;52.114;11.674;2024-03-22T02:12:39;12.37;;;6.13;;
60730;SDS011;46580;52.114;11.674;2024-03-22T02:15:05;8.77;;;5.87;;
60730;SDS011;46580;52.114;11.674;2024-03-22T02:17:32;10.50;;;5.67;;
60730;SDS011;46580;52.114;11.674;2024-03-22T02:19:58;10.70;;;6.00;;
60730;SDS011;46580;52.114;11.674;2024-03-22T02:22:24;13.67;;;5.60;;
60730;SDS011;46580;52.114;11.674;2024-03-22T02:24:49;9.53;;;6.33;;
60730;SDS011;46580;52.114;11.674;2024-03-22T02:27:14;10.37;;;6.00;;
60730;SDS011;46580;52.114;11.674;2024-03-22T02:29:40;12.77;;;6.67;;
60730;SDS011;46580;52.114;11.674;2024-03-22T02:32:05;11.23;;;6.03;;
60730;SDS011;46580;52.114;11.674;2024-03-22T02:34:31;12.77;;;5.73;;
60730;SDS011;46580;52.114;11.674;2024-03-22T02:36:57;10.80;;;6.60;;
60730;SDS011;46580;52.114;11.674;2024-03-22T02:39:22;11.43;;;6.70;;
60730;SDS011;46580;52.114;11.674;2024-03-22T02:41:47;13.63;;;7.27;;
60730;SDS011;46580;52.114;11.674;2024-03-22T02:44:13;12.80;;;6.70;;
60730;SDS011;46580;52.114;11.674;2024-03-22T02:46:38;10.83;;;7.10;;
60730;SDS011;46580;52.114;11.674;2024-03-22T02:49:04;14.20;;;6.67;;
60730;SDS011;46580;52.114;11.674;2024-03-22T02:51:29;10.57;;;6.50;;
60730;SDS011;46580;52.114;11.674;2024-03-22T02:53:54;10.23;;;6.63;;
60730;SDS011;46580;52.114;11.674;2024-03-22T02:56:20;10.67;;;5.47;;
60730;SDS011;46580;52.114;11.674;2024-03-22T02:58:45;11.73;;;6.90;;
60730;SDS011;46580;52.114;11.674;2024-03-22T03:01:11;12.47;;;7.03;;
60730;SDS011;46580;52.114;11.674;2024-03-22T03:03:36;13.43;;;7.50;;
60730;SDS011;46580;52.114;11.674;2024-03-22T03:06:02;10.77;;;6.67;;
60730;SDS011;46580;52.114;11.674;2024-03-22T03:08:27;11.43;;;6.77;;
60730;SDS011;46580;52.114;11.674;2024-03-22T03:10:53;12.67;;;6.37;;
60730;SDS011;46580;52.114;11.674;2024-03-22T03:13:18;11.03;;;7.03;;
60730;SDS011;46580;52.114;11.674;2024-03-22T03:15:43;15.50;;;7.10;;
60730;SDS011;46580;52.114;11.674;2024-03-22T03:18:09;8.93;;;6.10;;
60730;SDS011;46580;52.114;11.674;2024-03-22T03:20:34;9.43;;;6.20;;
60730;SDS011;46580;52.114;11.674;2024-03-22T03:23:00;12.00;;;6.23;;
60730;SDS011;46580;52.114;11.674;2024-03-22T03:25:26;13.27;;;6.90;;
60730;SDS011;46580;52.114;11.674;2024-03-22T03:27:52;8.70;;;5.40;;
60730;SDS011;46580;52.114;11.674;2024-03-22T03:30:17;12.57;;;6.07;;
60730;SDS011;46580;52.114;11.674;2024-03-22T03:32:43;11.57;;;6.30;;
60730;SDS011;46580;52.114;11.674;2024-03-22T03:35:11;13.40;;;7.03;;
60730;SDS011;46580;52.114;11.674;2024-03-22T03:37:36;11.20;;;6.60;;
60730;SDS011;46580;52.114;11.674;2024-03-22T03:40:02;10.67;;;7.07;;
60730;SDS011;46580;52.114;11.674;2024-03-22T03:42:28;12.37;;;6.27;;
60730;SDS011;46580;52.114;11.674;2024-03-22T03:44:53;11.10;;;6.40;;
60730;SDS011;46580;52.114;11.674;2024-03-22T03:47:19;10.73;;;5.83;;
60730;SDS011;46580;52.114;11.674;2024-03-22T03:49:45;11.80;;;6.17;;
60730;SDS011;46580;52.114;11.674;2024-03-22T03:52:11;11.37;;;7.10;;
60730;SDS011;46580;52.114;11.674;2024-03-22T03:54:36;10.77;;;6.17;;
60730;SDS011;46580;52.114;11.674;2024-03-22T03:57:02;9.47;;;5.80;;
60730;SDS011;46580;52.114;11.674;2024-03-22T03:59:27;10.93;;;6.57;;
60730;SDS011;46580;52.114;11.674;2024-03-22T04:01:52;10.93;;;6.07;;
60730;SDS011;46580;52.114;11.674;2024-03-22T04:04:18;9.37;;;5.40;;
60730;SDS011;46580;52.114;11.674;2024-03-22T04:06:44;15.10;;;7.10;;
60730;SDS011;46580;52.114;11.674;2024-03-22T04:09:12;14.63;;;7.57;;
60730;SDS011;46580;52.114;11.674;2024-03-22T04:11:38;12.87;;;6.93;;
60730;SDS011;46580;52.114;11.674;2024-03-22T04:14:04;15.77;;;7.80;;
60730;SDS011;46580;52.114;11.674;2024-03-22T04:16:30;14.57;;;8.23;;
60730;SDS011;46580;52.114;11.674;2024-03-22T04:18:56;14.47;;;7.13;;
60730;SDS011;46580;52.114;11.674;2024-03-22T04:21:21;15.30;;;8.30;;
60730;SDS011;46580;52.114;11.674;2024-03-22T04:23:47;14.63;;;8.00;;
60730;SDS011;46580;52.114;11.674;2024-03-22T04:26:12;13.33;;;7.90;;
60730;SDS011;46580;52.114;11.674;2024-03-22T04:28:38;11.87;;;7.40;;
60730;SDS011;46580;52.114;11.674;2024-03-22T04:31:04;13.97;;;7.93;;
60730;SDS011;46580;52.114;11.674;2024-03-22T04:33:31;14.40;;;8.03;;
60730;SDS011;46580;52.114;11.674;2024-03-22T04:35:58;15.20;;;8.27;;
60730;SDS011;46580;52.114;11.674;2024-03-22T04:38:25;12.73;;;6.83;;
60730;SDS011;46580;52.114;11.674;2024-03-22T04:40:51;15.87;;;7.73;;
60730;SDS011;46580;52.114;11.674;2024-03-22T04:43:17;14.67;;;8.40;;
60730;SDS011;46580;52.114;11.674;2024-03-22T04:45:43;13.63;;;8.40;;
60730;SDS011;46580;52.114;11.674;2024-03-22T04:48:09;13.40;;;8.20;;
60730;SDS011;46580;52.114;11.674;2024-03-22T04:50:34;17.10;;;8.17;;
60730;SDS011;46580;52.114;11.674;2024-03-22T04:53:00;18.67;;;9.20;;
60730;SDS011;46580;52.114;11.674;2024-03-22T04:55:26;17.30;;;9.27;;
60730;SDS011;46580;52.114;11.674;2024-03-22T04:57:51;18.10;;;9.80;;
60730;SDS011;46580;52.114;11.674;2024-03-22T05:00:17;20.53;;;11.03;;
60730;SDS011;46580;52.114;11.674;2024-03-22T05:02:43;16.87;;;9.70;;
60730;SDS011;46580;52.114;11.674;2024-03-22T05:05:09;20.43;;;10.77;;
60730;SDS011;46580;52.114;11.674;2024-03-22T05:07:36;20.67;;;11.87;;
60730;SDS011;46580;52.114;11.674;2024-03-22T05:10:02;20.33;;;11.57;;
60730;SDS011;46580;52.114;11.674;2024-03-22T05:12:28;22.87;;;11.87;;
60730;SDS011;46580;52.114;11.674;2024-03-22T05:14:54;22.63;;;11.20;;
60730;SDS011;46580;52.114;11.674;2024-03-22T05:17:20;22.40;;;12.07;;
60730;SDS011;46580;52.114;11.674;2024-03-22T05:19:45;19.03;;;11.77;;
60730;SDS011;46580;52.114;11.674;2024-03-22T05:22:10;26.00;;;12.83;;
60730;SDS011;46580;52.114;11.674;2024-03-22T05:24:36;21.27;;;11.70;;
60730;SDS011;46580;52.114;11.674;2024-03-22T05:27:01;21.03;;;11.47;;
60730;SDS011;46580;52.114;11.674;2024-03-22T05:29:26;22.83;;;12.70;;
60730;SDS011;46580;52.114;11.674;2024-03-22T05:31:52;20.70;;;11.37;;
60730;SDS011;46580;52.114;11.674;2024-03-22T05:34:18;23.23;;;12.77;;
60730;SDS011;46580;52.114;11.674;2024-03-22T05:36:44;24.17;;;12.20;;
60730;SDS011;46580;52.114;11.674;2024-03-22T05:39:10;21.83;;;12.03;;
60730;SDS011;46580;52.114;11.674;2024-03-22T05:41:36;25.77;;;12.87;;
60730;SDS011;46580;52.114;11.674;2024-03-22T05:44:01;26.67;;;13.57;;
60730;SDS011;46580;52.114;11.674;2024-03-22T05:46:28;22.83;;;12.07;;
60730;SDS011;46580;52.114;11.674;2024-03-22T05:48:53;21.57;;;11.43;;
60730;SDS011;46580;52.114;11.674;2024-03-22T05:51:19;23.87;;;12.63;;
60730;SDS011;46580;52.114;11.674;2024-03-22T05:53:44;22.43;;;12.43;;
60730;SDS011;46580;52.114;11.674;2024-03-22T05:56:10;24.23;;;12.20;;
60730;SDS011;46580;52.114;11.674;2024-03-22T05:58:35;25.07;;;12.20;;
60730;SDS011;46580;52.114;11.674;2024-03-22T06:01:01;22.47;;;12.10;;
60730;SDS011;46580;52.114;11.674;2024-03-22T06:03:28;21.27;;;11.20;;
60730;SDS011;46580;52.114;11.674;2024-03-22T06:05:53;25.17;;;13.00;;
60730;SDS011;46580;52.114;11.674;2024-03-22T06:08:21;25.30;;;12.57;;
60730;SDS011;46580;52.114;11.674;2024-03-22T06:10:48;23.77;;;12.37;;
60730;SDS011;46580;52.114;11.674;2024-03-22T06:13:13;20.47;;;12.07;;
60730;SDS011;46580;52.114;11.674;2024-03-22T06:15:40;24.50;;;11.40;;
60730;SDS011;46580;52.114;11.674;2024-03-22T06:18:10;22.87;;;11.33;;
60730;SDS011;46580;52.114;11.674;2024-03-22T06:20:36;23.47;;;12.67;;
60730;SDS011;46580;52.114;11.674;2024-03-22T06:23:04;24.83;;;12.17;;
60730;SDS011;46580;52.114;11.674;2024-03-22T06:25:29;26.40;;;12.60;;
60730;SDS011;46580;52.114;11.674;2024-03-22T06:27:55;20.00;;;11.40;;
60730;SDS011;46580;52.114;11.674;2024-03-22T06:30:20;22.23;;;11.57;;
60730;SDS011;46580;52.114;11.674;2024-03-22T06:32:46;20.30;;;11.17;;
60730;SDS011;46580;52.114;11.674;2024-03-22T06:35:11;21.30;;;11.07;;
60730;SDS011;46580;52.114;11.674;2024-03-22T06:37:40;22.77;;;11.07;;
60730;SDS011;46580;52.114;11.674;2024-03-22T06:40:07;19.87;;;11.03;;
60730;SDS011;46580;52.114;11.674;2024-03-22T06:42:33;21.33;;;11.57;;
60730;SDS011;46580;52.114;11.674;2024-03-22T06:44:58;22.67;;;12.30;;
60730;SDS011;46580;52.114;11.674;2024-03-22T06:47:24;19.20;;;10.73;;
60730;SDS011;46580;52.114;11.674;2024-03-22T06:49:49;22.77;;;11.73;;
60730;SDS011;46580;52.114;11.674;2024-03-22T06:52:15;21.73;;;11.70;;
60730;SDS011;46580;52.114;11.674;2024-03-22T06:54:40;25.73;;;12.63;;
60730;SDS011;46580;52.114;11.674;2024-03-22T06:57:06;22.97;;;10.77;;
60730;SDS011;46580;52.114;11.674;2024-03-22T06:59:32;19.20;;;11.27;;
60730;SDS011;46580;52.114;11.674;2024-03-22T07:01:57;21.13;;;11.53;;
60730;SDS011;46580;52.114;11.674;2024-03-22T07:04:23;24.03;;;12.03;;
60730;SDS011;46580;52.114;11.674;2024-03-22T07:06:48;23.13;;;11.67;;
60730;SDS011;46580;52.114;11.674;2024-03-22T07:09:14;22.57;;;11.43;;
60730;SDS011;46580;52.114;11.674;2024-03-22T07:11:40;23.33;;;11.53;;
60730;SDS011;46580;52.114;11.674;2024-03-22T07:14:06;23.50;;;11.10;;
60730;SDS011;46580;52.114;11.674;2024-03-22T07:16:32;21.10;;;11.03;;
60730;SDS011;46580;52.114;11.674;2024-03-22T07:18:57;24.53;;;11.70;;
60730;SDS011;46580;52.114;11.674;2024-03-22T07:21:24;22.00;;;11.10;;
60730;SDS011;46580;52.114;11.674;2024-03-22T07:23:49;25.37;;;12.20;;
60730;SDS011;46580;52.114;11.674;2024-03-22T07:26:15;25.50;;;13.27;;
60730;SDS011;46580;52.114;11.674;2024-03-22T07:28:40;26.80;;;11.50;;
60730;SDS011;46580;52.114;11.674;2024-03-22T07:31:06;25.20;;;12.20;;
60730;SDS011;46580;52.114;11.674;2024-03-22T07:33:35;22.47;;;11.03;;
60730;SDS011;46580;52.114;11.674;2024-03-22T07:36:03;22.00;;;10.70;;
60730;SDS011;46580;52.114;11.674;2024-03-22T07:38:29;19.60;;;10.10;;
60730;SDS011;46580;52.114;11.674;2024-03-22T07:40:54;28.90;;;11.50;;
60730;SDS011;46580;52.114;11.674;2024-03-22T07:43:20;25.23;;;11.77;;
60730;SDS011;46580;52.114;11.674;2024-03-22T07:45:45;20.97;;;9.57;;
60730;SDS011;46580;52.114;11.674;2024-03-22T07:48:11;19.50;;;10.40;;
60730;SDS011;46580;52.114;11.674;2024-03-22T07:50:36;21.37;;;10.73;;
60730;SDS011;46580;52.114;11.674;2024-03-22T07:53:02;19.80;;;10.33;;
60730;SDS011;46580;52.114;11.674;2024-03-22T07:55:30;20.60;;;10.47;;
60730;SDS011;46580;52.114;11.674;2024-03-22T07:57:56;23.67;;;10.73;;
60730;SDS011;46580;52.114;11.674;2024-03-22T08:00:25;23.07;;;11.00;;
60730;SDS011;46580;52.114;11.674;2024-03-22T08:02:51;25.07;;;10.83;;
60730;SDS011;46580;52.114;11.674;2024-03-22T08:05:19;22.27;;;11.13;;
60730;SDS011;46580;52.114;11.674;2024-03-22T08:07:45;20.30;;;10.17;;
60730;SDS011;46580;52.114;11.674;2024-03-22T08:10:11;18.97;;;9.97;;
60730;SDS011;46580;52.114;11.674;2024-03-22T08:12:36;19.17;;;10.40;;
60730;SDS011;46580;52.114;11.674;2024-03-22T08:15:01;21.70;;;10.90;;
60730;SDS011;46580;52.114;11.674;2024-03-22T08:17:28;21.40;;;10.87;;
60730;SDS011;46580;52.114;11.674;2024-03-22T08:19:53;22.27;;;10.80;;
60730;SDS011;46580;52.114;11.674;2024-03-22T08:22:19;20.20;;;11.17;;
60730;SDS011;46580;52.114;11.674;2024-03-22T08:24:45;21.07;;;10.30;;
60730;SDS011;46580;52.114;11.674;2024-03-22T08:27:10;24.37;;;11.23;;
60730;SDS011;46580;52.114;11.674;2024-03-22T08:29:39;18.80;;;10.03;;
60730;SDS011;46580;52.114;11.674;2024-03-22T08:32:06;20.97;;;10.90;;
60730;SDS011;46580;52.114;11.674;2024-03-22T08:34:32;21.00;;;10.50;;
60730;SDS011;46580;52.114;11.674;2024-03-22T08:36:58;23.03;;;11.33;;
60730;SDS011;46580;52.114;11.674;2024-03-22T08:39:24;23.00;;;11.17;;
60730;SDS011;46580;52.114;11.674;2024-03-22T08:41:49;25.33;;;10.33;;
60730;SDS011;46580;52.114;11.674;2024-03-22T08:44:16;25.53;;;11.87;;
60730;SDS011;46580;52.114;11.674;2024-03-22T08:46:44;19.60;;;10.17;;
60730;SDS011;46580;52.114;11.674;2024-03-22T08:49:09;23.03;;;11.17;;
60730;SDS011;46580;52.114;11.674;2024-03-22T08:51:37;26.53;;;12.33;;
60730;SDS011;46580;52.114;11.674;2024-03-22T08:54:02;22.33;;;11.63;;
60730;SDS011;46580;52.114;11.674;2024-03-22T08:56:29;27.57;;;11.80;;
60730;SDS011;46580;52.114;11.674;2024-03-22T08:58:54;26.43;;;12.73;;
60730;SDS011;46580;52.114;11.674;2024-03-22T09:01:20;25.23;;;12.70;;
60730;SDS011;46580;52.114;11.674;2024-03-22T09:03:47;20.93;;;10.80;;
60730;SDS011;46580;52.114;11.674;2024-03-22T09:06:14;22.97;;;11.23;;
60730;SDS011;46580;52.114;11.674;2024-03-22T09:08:40;21.40;;;11.37;;
60730;SDS011;46580;52.114;11.674;2024-03-22T09:11:05;25.00;;;12.37;;
60730;SDS011;46580;52.114;11.674;2024-03-22T09:13:31;24.17;;;11.43;;
60730;SDS011;46580;52.114;11.674;2024-03-22T09:15:59;20.33;;;11.07;;
60730;SDS011;46580;52.114;11.674;2024-03-22T09:18:25;23.33;;;10.63;;
60730;SDS011;46580;52.114;11.674;2024-03-22T09:20:52;21.70;;;10.37;;
60730;SDS011;46580;52.114;11.674;2024-03-22T09:23:18;18.50;;;10.43;;
60730;SDS011;46580;52.114;11.674;2024-03-22T09:25:44;18.27;;;9.37;;
60730;SDS011;46580;52.114;11.674;2024-03-22T09:28:11;19.57;;;10.37;;
60730;SDS011;46580;52.114;11.674;2024-03-22T09:30:38;18.20;;;9.70;;
60730;SDS011;46580;52.114;11.674;2024-03-22T09:33:04;18.63;;;10.00;;
60730;SDS011;46580;52.114;11.674;2024-03-22T09:35:30;22.03;;;10.30;;
60730;SDS011;46580;52.114;11.674;2024-03-22T09:37:57;20.40;;;9.93;;
60730;SDS011;46580;52.114;11.674;2024-03-22T09:40:22;21.17;;;9.87;;
60730;SDS011;46580;52.114;11.674;2024-03-22T09:42:49;19.33;;;9.00;;
60730;SDS011;46580;52.114;11.674;2024-03-22T09:45:17;23.57;;;10.50;;
60730;SDS011;46580;52.114;11.674;2024-03-22T09:47:43;19.30;;;10.03;;
60730;SDS011;46580;52.114;11.674;2024-03-22T09:50:10;18.67;;;9.13;;
60730;SDS011;46580;52.114;11.674;2024-03-22T09:52:37;14.73;;;8.50;;
60730;SDS011;46580;52.114;11.674;2024-03-22T09:55:05;18.60;;;10.37;;
60730;SDS011;46580;52.114;11.674;2024-03-22T09:57:31;17.43;;;8.57;;
60730;SDS011;46580;52.114;11.674;2024-03-22T09:59:59;19.83;;;8.87;;
60730;SDS011;46580;52.114;11.674;2024-03-22T10:02:24;14.93;;;9.40;;
60730;SDS011;46580;52.114;11.674;2024-03-22T10:04:51;14.53;;;8.23;;
60730;SDS011;46580;52.114;11.674;2024-03-22T10:07:17;17.13;;;8.73;;
60730;SDS011;46580;52.114;11.674;2024-03-22T10:09:43;16.80;;;8.10;;
60730;SDS011;46580;52.114;11.674;2024-03-22T10:12:09;18.93;;;7.97;;
60730;SDS011;46580;52.114;11.674;2024-03-22T10:14:34;16.13;;;8.30;;
60730;SDS011;46580;52.114;11.674;2024-03-22T10:17:04;18.97;;;8.37;;
60730;SDS011;46580;52.114;11.674;2024-03-22T10:19:29;13.90;;;7.80;;
60730;SDS011;46580;52.114;11.674;2024-03-22T10:22:04;17.17;;;7.57;;
60730;SDS011;46580;52.114;11.674;2024-03-22T10:24:30;13.73;;;7.30;;
60730;SDS011;46580;52.114;11.674;2024-03-22T10:26:57;17.30;;;7.60;;
60730;SDS011;46580;52.114;11.674;2024-03-22T10:29:23;16.30;;;7.30;;
60730;SDS011;46580;52.114;11.674;2024-03-22T10:31:50;12.10;;;7.20;;
60730;SDS011;46580;52.114;11.674;2024-03-22T10:34:17;13.03;;;7.57;;
60730;SDS011;46580;52.114;11.674;2024-03-22T10:36:43;14.47;;;7.63;;
60730;SDS011;46580;52.114;11.674;2024-03-22T10:39:09;13.10;;;7.43;;
60730;SDS011;46580;52.114;11.674;2024-03-22T10:41:36;14.37;;;7.00;;
60730;SDS011;46580;52.114;11.674;2024-03-22T10:44:02;14.23;;;7.47;;
60730;SDS011;46580;52.114;11.674;2024-03-22T10:46:30;12.77;;;6.67;;
60730;SDS011;46580;52.114;11.674;2024-03-22T10:48:56;12.47;;;7.10;;
60730;SDS011;46580;52.114;11.674;2024-03-22T10:51:23;12.03;;;7.30;;
60730;SDS011;46580;52.114;11.674;2024-03-22T10:53:51;11.40;;;6.47;;
60730;SDS011;46580;52.114;11.674;2024-03-22T10:56:19;15.77;;;6.47;;
60730;SDS011;46580;52.114;11.674;2024-03-22T10:58:47;13.07;;;7.07;;
60730;SDS011;46580;52.114;11.674;2024-03-22T11:01:23;12.53;;;6.20;;
60730;SDS011;46580;52.114;11.674;2024-03-22T11:03:49;12.87;;;5.97;;
60730;SDS011;46580;52.114;11.674;2024-03-22T11:06:17;11.93;;;6.70;;
60730;SDS011;46580;52.114;11.674;2024-03-22T11:08:50;14.23;;;6.57;;
60730;SDS011;46580;52.114;11.674;2024-03-22T11:11:20;13.03;;;5.70;;
60730;SDS011;46580;52.114;11.674;2024-03-22T11:13:48;11.17;;;5.70;;
60730;SDS011;46580;52.114;11.674;2024-03-22T11:16:14;10.87;;;5.90;;
60730;SDS011;46580;52.114;11.674;2024-03-22T11:18:39;12.67;;;5.63;;
60730;SDS011;46580;52.114;11.674;2024-03-22T11:21:05;13.30;;;6.40;;
60730;SDS011;46580;52.114;11.674;2024-03-22T11:23:33;14.67;;;7.87;;
60730;SDS011;46580;52.114;11.674;2024-03-22T11:26:01;15.60;;;6.53;;
60730;SDS011;46580;52.114;11.674;2024-03-22T11:28:26;11.80;;;6.40;;
60730;SDS011;46580;52.114;11.674;2024-03-22T11:30:52;12.40;;;6.60;;
60730;SDS011;46580;52.114;11.674;2024-03-22T11:33:18;12.30;;;6.73;;
60730;SDS011;46580;52.114;11.674;2024-03-22T11:35:47;15.83;;;6.80;;
60730;SDS011;46580;52.114;11.674;2024-03-22T11:38:15;11.60;;;5.80;;
60730;SDS011;46580;52.114;11.674;2024-03-22T11:40:41;9.83;;;6.17;;
60730;SDS011;46580;52.114;11.674;2024-03-22T11:43:09;13.43;;;6.00;;
60730;SDS011;46580;52.114;11.674;2024-03-22T11:45:35;11.53;;;6.27;;
60730;SDS011;46580;52.114;11.674;2024-03-22T11:48:05;10.07;;;5.43;;
60730;SDS011;46580;52.114;11.674;2024-03-22T11:50:31;10.37;;;6.27;;
60730;SDS011;46580;52.114;11.674;2024-03-22T11:52:57;13.87;;;5.93;;
60730;SDS011;46580;52.114;11.674;2024-03-22T11:55:26;8.43;;;5.33;;
60730;SDS011;46580;52.114;11.674;2024-03-22T11:57:53;8.33;;;4.70;;
60730;SDS011;46580;52.114;11.674;2024-03-22T12:00:18;11.03;;;5.33;;
60730;SDS011;46580;52.114;11.674;2024-03-22T12:02:44;10.17;;;5.07;;
60730;SDS011;46580;52.114;11.674;2024-03-22T12:05:10;7.97;;;4.37;;
60730;SDS011;46580;52.114;11.674;2024-03-22T12:07:36;8.97;;;4.67;;
60730;SDS011;46580;52.114;11.674;2024-03-22T12:10:01;9.20;;;4.60;;
60730;SDS011;46580;52.114;11.674;2024-03-22T12:12:28;9.90;;;4.70;;
60730;SDS011;46580;52.114;11.674;2024-03-22T12:14:54;7.67;;;4.40;;
60730;SDS011;46580;52.114;11.674;2024-03-22T12:17:20;7.83;;;4.53;;
60730;SDS011;46580;52.114;11.674;2024-03-22T12:19:45;9.27;;;5.30;;
60730;SDS011;46580;52.114;11.674;2024-03-22T12:22:13;7.97;;;4.47;;
60730;SDS011;46580;52.114;11.674;2024-03-22T12:24:38;11.50;;;5.13;;
60730;SDS011;46580;52.114;11.674;2024-03-22T12:27:04;9.30;;;5.30;;
60730;SDS011;46580;52.114;11.674;2024-03-22T12:29:32;8.70;;;4.83;;
60730;SDS011;46580;52.114;11.674;2024-03-22T12:31:59;9.00;;;4.87;;
60730;SDS011;46580;52.114;11.674;2024-03-22T12:34:28;8.87;;;4.77;;
60730;SDS011;46580;52.114;11.674;2024-03-22T12:36:55;8.50;;;4.90;;
60730;SDS011;46580;52.114;11.674;2024-03-22T12:39:20;9.03;;;4.77;;
60730;SDS011;46580;52.114;11.674;2024-03-22T12:41:46;9.10;;;4.03;;
60730;SDS011;46580;52.114;11.674;2024-03-22T12:44:12;9.57;;;5.03;;
60730;SDS011;46580;52.114;11.674;2024-03-22T12:46:37;9.47;;;5.07;;
60730;SDS011;46580;52.114;11.674;2024-03-22T12:49:03;9.97;;;4.93;;
60730;SDS011;46580;52.114;11.674;2024-03-22T12:51:29;8.77;;;5.10;;
60730;SDS011;46580;52.114;11.674;2024-03-22T12:53:55;8.93;;;5.27;;
60730;SDS011;46580;52.114;11.674;2024-03-22T12:56:20;12.43;;;6.03;;
60730;SDS011;46580;52.114;11.674;2024-03-22T12:58:46;11.23;;;5.70;;
60730;SDS011;46580;52.114;11.674;2024-03-22T13:01:12;10.70;;;5.50;;
60730;SDS011;46580;52.114;11.674;2024-03-22T13:03:38;9.57;;;5.20;;
60730;SDS011;46580;52.114;11.674;2024-03-22T13:06:03;10.67;;;5.87;;
60730;SDS011;46580;52.114;11.674;2024-03-22T13:08:30;8.23;;;4.97;;
60730;SDS011;46580;52.114;11.674;2024-03-22T13:10:58;10.13;;;5.23;;
60730;SDS011;46580;52.114;11.674;2024-03-22T13:13:24;8.77;;;5.00;;
60730;SDS011;46580;52.114;11.674;2024-03-22T13:15:49;8.13;;;4.97;;
60730;SDS011;46580;52.114;11.674;2024-03-22T13:18:15;7.83;;;5.07;;
60730;SDS011;46580;52.114;11.674;2024-03-22T13:20:40;9.43;;;5.20;;
60730;SDS011;46580;52.114;11.674;2024-03-22T13:23:06;8.83;;;4.90;;
60730;SDS011;46580;52.114;11.674;2024-03-22T13:25:34;8.20;;;5.20;;
60730;SDS011;46580;52.114;11.674;2024-03-22T13:28:01;8.77;;;5.03;;
60730;SDS011;46580;52.114;11.674;2024-03-22T13:30:28;9.70;;;5.20;;
60730;SDS011;46580;52.114;11.674;2024-03-22T13:32:54;10.50;;;5.37;;
60730;SDS011;46580;52.114;11.674;2024-03-22T13:35:19;9.20;;;5.30;;
60730;SDS011;46580;52.114;11.674;2024-03-22T13:37:44;7.93;;;5.33;;
60730;SDS011;46580;52.114;11.674;2024-03-22T13:40:10;9.00;;;5.53;;
60730;SDS011;46580;52.114;11.674;2024-03-22T13:42:36;10.67;;;5.70;;
60730;SDS011;46580;52.114;11.674;2024-03-22T13:45:01;8.73;;;5.43;;
60730;SDS011;46580;52.114;11.674;2024-03-22T13:47:27;8.30;;;5.43;;
60730;SDS011;46580;52.114;11.674;2024-03-22T13:49:53;9.30;;;5.87;;
60730;SDS011;46580;52.114;11.674;2024-03-22T13:52:19;12.47;;;6.20;;
60730;SDS011;46580;52.114;11.674;2024-03-22T13:54:45;10.60;;;5.93;;
60730;SDS011;46580;52.114;11.674;2024-03-22T13:57:11;8.43;;;5.53;;
60730;SDS011;46580;52.114;11.674;2024-03-22T13:59:36;11.07;;;5.93;;
60730;SDS011;46580;52.114;11.674;2024-03-22T14:02:02;10.90;;;5.90;;
60730;SDS011;46580;52.114;11.674;2024-03-22T14:04:28;10.03;;;5.83;;
60730;SDS011;46580;52.114;11.674;2024-03-22T14:06:54;10.33;;;5.23;;
60730;SDS011;46580;52.114;11.674;2024-03-22T14:09:19;10.80;;;5.63;;
60730;SDS011;46580;52.114;11.674;2024-03-22T14:11:45;14.43;;;6.57;;